sensor_id;sensor_type;location;lat;lon;timestamp;temperature;humidity
72905;DHT22;61048;52.162;4.516;2022-07-29T00:00:29;21.80;47.50
72905;DHT22;61048;52.162;4.516;2022-07-29T00:02:56;21.70;47.50
72905;DHT22;61048;52.162;4.516;2022-07-29T00:05:23;21.80;47.40
72905;DHT22;61048;52.162;4.516;2022-07-29T00:07:50;21.80;47.40
72905;DHT22;61048;52.162;4.516;2022-07-29T00:10:17;21.80;47.30
72905;DHT22;61048;52.162;4.516;2022-07-29T00:12:43;21.70;47.40
72905;DHT22;61048;52.162;4.516;2022-07-29T00:15:12;21.70;47.40
72905;DHT22;61048;52.162;4.516;2022-07-29T00:17:39;21.60;47.60
72905;DHT22;61048;52.162;4.516;2022-07-29T00:20:07;21.60;47.70
72905;DHT22;61048;52.162;4.516;2022-07-29T00:22:37;21.50;47.70
72905;DHT22;61048;52.162;4.516;2022-07-29T00:25:05;21.50;47.70
72905;DHT22;61048;52.162;4.516;2022-07-29T00:27:32;21.50;47.70
72905;DHT22;61048;52.162;4.516;2022-07-29T00:29:59;21.50;47.70
72905;DHT22;61048;52.162;4.516;2022-07-29T00:32:27;21.50;47.70
72905;DHT22;61048;52.162;4.516;2022-07-29T00:34:54;21.50;47.80
72905;DHT22;61048;52.162;4.516;2022-07-29T00:37:40;21.50;47.80
72905;DHT22;61048;52.162;4.516;2022-07-29T00:40:08;21.40;48.00
72905;DHT22;61048;52.162;4.516;2022-07-29T00:42:42;21.40;48.10
72905;DHT22;61048;52.162;4.516;2022-07-29T00:45:09;21.40;48.00
72905;DHT22;61048;52.162;4.516;2022-07-29T00:47:38;21.40;47.90
72905;DHT22;61048;52.162;4.516;2022-07-29T00:50:07;21.50;47.90
72905;DHT22;61048;52.162;4.516;2022-07-29T00:52:36;21.50;47.90
72905;DHT22;61048;52.162;4.516;2022-07-29T00:55:05;21.50;47.90
72905;DHT22;61048;52.162;4.516;2022-07-29T00:57:32;21.50;47.90
72905;DHT22;61048;52.162;4.516;2022-07-29T00:59:59;21.40;47.90
72905;DHT22;61048;52.162;4.516;2022-07-29T01:02:26;21.40;48.10
72905;DHT22;61048;52.162;4.516;2022-07-29T01:04:56;21.40;48.10
72905;DHT22;61048;52.162;4.516;2022-07-29T01:07:23;21.40;48.00
72905;DHT22;61048;52.162;4.516;2022-07-29T01:09:51;21.40;47.90
72905;DHT22;61048;52.162;4.516;2022-07-29T01:12:21;21.40;48.00
72905;DHT22;61048;52.162;4.516;2022-07-29T01:14:50;21.40;47.90
72905;DHT22;61048;52.162;4.516;2022-07-29T01:17:21;21.40;47.90
72905;DHT22;61048;52.162;4.516;2022-07-29T01:19:58;21.40;47.80
72905;DHT22;61048;52.162;4.516;2022-07-29T01:25:39;21.40;47.80
72905;DHT22;61048;52.162;4.516;2022-07-29T01:31:16;21.40;47.80
72905;DHT22;61048;52.162;4.516;2022-07-29T01:33:47;21.40;47.80
72905;DHT22;61048;52.162;4.516;2022-07-29T01:36:19;21.40;47.80
72905;DHT22;61048;52.162;4.516;2022-07-29T01:38:54;21.40;47.90
72905;DHT22;61048;52.162;4.516;2022-07-29T01:41:26;21.40;47.90
72905;DHT22;61048;52.162;4.516;2022-07-29T01:43:58;21.30;48.00
72905;DHT22;61048;52.162;4.516;2022-07-29T01:46:33;21.40;47.90
72905;DHT22;61048;52.162;4.516;2022-07-29T01:49:07;21.30;48.00
72905;DHT22;61048;52.162;4.516;2022-07-29T01:51:41;21.30;48.00
72905;DHT22;61048;52.162;4.516;2022-07-29T01:54:13;21.30;48.10
72905;DHT22;61048;52.162;4.516;2022-07-29T01:56:42;21.20;48.10
72905;DHT22;61048;52.162;4.516;2022-07-29T01:59:10;21.20;48.20
72905;DHT22;61048;52.162;4.516;2022-07-29T02:01:41;21.20;48.10
72905;DHT22;61048;52.162;4.516;2022-07-29T02:04:10;21.20;48.10
72905;DHT22;61048;52.162;4.516;2022-07-29T02:06:40;21.20;48.10
72905;DHT22;61048;52.162;4.516;2022-07-29T02:09:11;21.20;48.10
72905;DHT22;61048;52.162;4.516;2022-07-29T02:11:40;21.20;48.10
72905;DHT22;61048;52.162;4.516;2022-07-29T02:14:10;21.20;48.10
72905;DHT22;61048;52.162;4.516;2022-07-29T02:16:40;21.20;48.00
72905;DHT22;61048;52.162;4.516;2022-07-29T02:19:08;21.20;48.00
72905;DHT22;61048;52.162;4.516;2022-07-29T02:21:36;21.20;48.00
72905;DHT22;61048;52.162;4.516;2022-07-29T02:24:05;21.20;48.00
72905;DHT22;61048;52.162;4.516;2022-07-29T02:26:33;21.20;48.00
72905;DHT22;61048;52.162;4.516;2022-07-29T02:29:01;21.20;48.00
72905;DHT22;61048;52.162;4.516;2022-07-29T02:31:31;21.20;48.00
72905;DHT22;61048;52.162;4.516;2022-07-29T02:34:00;21.20;48.00
72905;DHT22;61048;52.162;4.516;2022-07-29T02:36:29;21.20;48.10
72905;DHT22;61048;52.162;4.516;2022-07-29T02:38:58;21.20;48.00
72905;DHT22;61048;52.162;4.516;2022-07-29T02:41:28;21.20;48.10
72905;DHT22;61048;52.162;4.516;2022-07-29T02:44:05;21.20;48.10
72905;DHT22;61048;52.162;4.516;2022-07-29T02:46:35;21.20;48.10
72905;DHT22;61048;52.162;4.516;2022-07-29T02:49:10;21.30;48.00
72905;DHT22;61048;52.162;4.516;2022-07-29T02:51:43;21.30;48.00
72905;DHT22;61048;52.162;4.516;2022-07-29T02:54:21;21.20;48.10
72905;DHT22;61048;52.162;4.516;2022-07-29T02:56:49;21.30;48.10
72905;DHT22;61048;52.162;4.516;2022-07-29T02:59:25;21.30;48.20
72905;DHT22;61048;52.162;4.516;2022-07-29T03:01:54;21.30;48.30
72905;DHT22;61048;52.162;4.516;2022-07-29T03:04:24;21.20;48.30
72905;DHT22;61048;52.162;4.516;2022-07-29T03:06:54;21.20;48.40
72905;DHT22;61048;52.162;4.516;2022-07-29T03:09:22;21.20;48.50
72905;DHT22;61048;52.162;4.516;2022-07-29T03:11:49;21.20;48.70
72905;DHT22;61048;52.162;4.516;2022-07-29T03:14:17;21.20;48.70
72905;DHT22;61048;52.162;4.516;2022-07-29T03:16:45;21.20;48.70
72905;DHT22;61048;52.162;4.516;2022-07-29T03:19:12;21.20;48.80
72905;DHT22;61048;52.162;4.516;2022-07-29T03:21:41;21.20;48.80
72905;DHT22;61048;52.162;4.516;2022-07-29T03:24:07;21.20;48.80
72905;DHT22;61048;52.162;4.516;2022-07-29T03:26:34;21.20;48.90
72905;DHT22;61048;52.162;4.516;2022-07-29T03:29:01;21.20;48.80
72905;DHT22;61048;52.162;4.516;2022-07-29T03:31:28;21.20;48.80
72905;DHT22;61048;52.162;4.516;2022-07-29T03:33:55;21.20;48.80
72905;DHT22;61048;52.162;4.516;2022-07-29T03:36:22;21.20;48.80
72905;DHT22;61048;52.162;4.516;2022-07-29T03:38:52;21.20;48.80
72905;DHT22;61048;52.162;4.516;2022-07-29T03:41:22;21.20;48.80
72905;DHT22;61048;52.162;4.516;2022-07-29T03:43:51;21.10;48.90
72905;DHT22;61048;52.162;4.516;2022-07-29T03:46:20;21.20;48.80
72905;DHT22;61048;52.162;4.516;2022-07-29T03:48:50;21.20;48.80
72905;DHT22;61048;52.162;4.516;2022-07-29T03:51:19;21.20;48.90
72905;DHT22;61048;52.162;4.516;2022-07-29T03:53:46;21.20;48.80
72905;DHT22;61048;52.162;4.516;2022-07-29T03:56:15;21.20;48.80
72905;DHT22;61048;52.162;4.516;2022-07-29T03:58:43;21.20;48.80
72905;DHT22;61048;52.162;4.516;2022-07-29T04:01:11;21.20;48.70
72905;DHT22;61048;52.162;4.516;2022-07-29T04:03:38;21.20;48.70
72905;DHT22;61048;52.162;4.516;2022-07-29T04:06:06;21.20;48.80
72905;DHT22;61048;52.162;4.516;2022-07-29T04:08:34;21.20;48.80
72905;DHT22;61048;52.162;4.516;2022-07-29T04:11:01;21.20;48.80
72905;DHT22;61048;52.162;4.516;2022-07-29T04:13:30;21.20;48.90
72905;DHT22;61048;52.162;4.516;2022-07-29T04:15:57;21.10;49.00
72905;DHT22;61048;52.162;4.516;2022-07-29T04:18:25;21.20;48.90
72905;DHT22;61048;52.162;4.516;2022-07-29T04:20:52;21.20;48.90
72905;DHT22;61048;52.162;4.516;2022-07-29T04:23:19;21.20;48.90
72905;DHT22;61048;52.162;4.516;2022-07-29T04:25:46;21.20;48.80
72905;DHT22;61048;52.162;4.516;2022-07-29T04:28:13;21.20;48.80
72905;DHT22;61048;52.162;4.516;2022-07-29T04:30:41;21.20;48.80
72905;DHT22;61048;52.162;4.516;2022-07-29T04:33:08;21.20;48.80
72905;DHT22;61048;52.162;4.516;2022-07-29T04:35:37;21.20;48.80
72905;DHT22;61048;52.162;4.516;2022-07-29T04:38:05;21.20;48.80
72905;DHT22;61048;52.162;4.516;2022-07-29T04:40:33;21.20;48.80
72905;DHT22;61048;52.162;4.516;2022-07-29T04:43:01;21.20;48.80
72905;DHT22;61048;52.162;4.516;2022-07-29T04:45:28;21.20;48.90
72905;DHT22;61048;52.162;4.516;2022-07-29T04:47:56;21.20;48.90
72905;DHT22;61048;52.162;4.516;2022-07-29T04:50:23;21.20;48.90
72905;DHT22;61048;52.162;4.516;2022-07-29T04:52:50;21.20;48.90
72905;DHT22;61048;52.162;4.516;2022-07-29T04:55:17;21.20;49.00
72905;DHT22;61048;52.162;4.516;2022-07-29T04:57:44;21.20;48.90
72905;DHT22;61048;52.162;4.516;2022-07-29T05:00:11;21.10;49.10
72905;DHT22;61048;52.162;4.516;2022-07-29T05:02:38;21.10;49.10
72905;DHT22;61048;52.162;4.516;2022-07-29T05:05:07;21.10;49.10
72905;DHT22;61048;52.162;4.516;2022-07-29T05:07:34;21.10;49.10
72905;DHT22;61048;52.162;4.516;2022-07-29T05:10:01;21.20;49.20
72905;DHT22;61048;52.162;4.516;2022-07-29T05:12:28;21.20;49.10
72905;DHT22;61048;52.162;4.516;2022-07-29T05:14:55;21.20;49.10
72905;DHT22;61048;52.162;4.516;2022-07-29T05:17:22;21.30;49.10
72905;DHT22;61048;52.162;4.516;2022-07-29T05:19:49;21.30;49.00
72905;DHT22;61048;52.162;4.516;2022-07-29T05:22:18;21.30;49.00
72905;DHT22;61048;52.162;4.516;2022-07-29T05:24:45;21.30;48.90
72905;DHT22;61048;52.162;4.516;2022-07-29T05:27:12;21.30;48.90
72905;DHT22;61048;52.162;4.516;2022-07-29T05:29:39;21.30;48.80
72905;DHT22;61048;52.162;4.516;2022-07-29T05:32:06;21.40;48.70
72905;DHT22;61048;52.162;4.516;2022-07-29T05:34:33;21.40;48.70
72905;DHT22;61048;52.162;4.516;2022-07-29T05:36:59;21.40;48.60
72905;DHT22;61048;52.162;4.516;2022-07-29T05:39:28;21.40;48.60
72905;DHT22;61048;52.162;4.516;2022-07-29T05:41:54;21.50;48.60
72905;DHT22;61048;52.162;4.516;2022-07-29T05:44:21;21.50;48.60
72905;DHT22;61048;52.162;4.516;2022-07-29T05:46:48;21.50;48.50
72905;DHT22;61048;52.162;4.516;2022-07-29T05:49:15;21.50;48.40
72905;DHT22;61048;52.162;4.516;2022-07-29T05:51:42;21.60;48.30
72905;DHT22;61048;52.162;4.516;2022-07-29T05:54:09;21.60;48.30
72905;DHT22;61048;52.162;4.516;2022-07-29T05:56:38;21.70;48.30
72905;DHT22;61048;52.162;4.516;2022-07-29T05:59:05;21.70;48.50
72905;DHT22;61048;52.162;4.516;2022-07-29T06:01:31;21.80;48.50
72905;DHT22;61048;52.162;4.516;2022-07-29T06:03:58;21.80;48.70
72905;DHT22;61048;52.162;4.516;2022-07-29T06:06:25;21.80;48.70
72905;DHT22;61048;52.162;4.516;2022-07-29T06:08:52;21.80;48.50
72905;DHT22;61048;52.162;4.516;2022-07-29T06:11:19;21.90;48.50
72905;DHT22;61048;52.162;4.516;2022-07-29T06:13:47;21.90;48.60
72905;DHT22;61048;52.162;4.516;2022-07-29T06:16:14;21.90;48.60
72905;DHT22;61048;52.162;4.516;2022-07-29T06:18:41;22.00;48.50
72905;DHT22;61048;52.162;4.516;2022-07-29T06:21:08;22.00;48.50
72905;DHT22;61048;52.162;4.516;2022-07-29T06:23:36;22.00;48.50
72905;DHT22;61048;52.162;4.516;2022-07-29T06:26:04;22.00;48.40
72905;DHT22;61048;52.162;4.516;2022-07-29T06:28:30;22.00;48.40
72905;DHT22;61048;52.162;4.516;2022-07-29T06:30:59;22.10;48.30
72905;DHT22;61048;52.162;4.516;2022-07-29T06:33:26;22.10;48.30
72905;DHT22;61048;52.162;4.516;2022-07-29T06:35:53;22.10;48.20
72905;DHT22;61048;52.162;4.516;2022-07-29T06:38:20;22.10;48.30
72905;DHT22;61048;52.162;4.516;2022-07-29T06:40:47;22.20;48.10
72905;DHT22;61048;52.162;4.516;2022-07-29T06:43:28;22.20;48.00
72905;DHT22;61048;52.162;4.516;2022-07-29T06:45:59;22.20;48.00
72905;DHT22;61048;52.162;4.516;2022-07-29T06:48:27;22.30;48.00
72905;DHT22;61048;52.162;4.516;2022-07-29T06:50:54;22.30;47.90
72905;DHT22;61048;52.162;4.516;2022-07-29T06:53:21;22.40;47.90
72905;DHT22;61048;52.162;4.516;2022-07-29T06:55:48;22.40;47.80
72905;DHT22;61048;52.162;4.516;2022-07-29T06:58:14;22.40;47.70
72905;DHT22;61048;52.162;4.516;2022-07-29T07:00:43;22.50;47.70
72905;DHT22;61048;52.162;4.516;2022-07-29T07:03:11;22.50;47.50
72905;DHT22;61048;52.162;4.516;2022-07-29T07:05:38;22.50;47.40
72905;DHT22;61048;52.162;4.516;2022-07-29T07:08:05;22.50;47.40
72905;DHT22;61048;52.162;4.516;2022-07-29T07:10:33;22.60;47.40
72905;DHT22;61048;52.162;4.516;2022-07-29T07:13:00;22.60;47.40
72905;DHT22;61048;52.162;4.516;2022-07-29T07:15:27;22.60;47.30
72905;DHT22;61048;52.162;4.516;2022-07-29T07:17:54;22.60;47.30
72905;DHT22;61048;52.162;4.516;2022-07-29T07:20:22;22.60;47.40
72905;DHT22;61048;52.162;4.516;2022-07-29T07:22:49;22.60;47.30
72905;DHT22;61048;52.162;4.516;2022-07-29T07:25:16;22.60;47.40
72905;DHT22;61048;52.162;4.516;2022-07-29T07:27:44;22.60;47.40
72905;DHT22;61048;52.162;4.516;2022-07-29T07:30:11;22.60;47.30
72905;DHT22;61048;52.162;4.516;2022-07-29T07:32:38;22.70;47.20
72905;DHT22;61048;52.162;4.516;2022-07-29T07:35:07;22.70;47.20
72905;DHT22;61048;52.162;4.516;2022-07-29T07:37:36;22.70;47.10
72905;DHT22;61048;52.162;4.516;2022-07-29T07:40:04;22.70;47.10
72905;DHT22;61048;52.162;4.516;2022-07-29T07:42:31;22.70;47.00
72905;DHT22;61048;52.162;4.516;2022-07-29T07:44:58;22.70;47.00
72905;DHT22;61048;52.162;4.516;2022-07-29T07:47:25;22.70;47.10
72905;DHT22;61048;52.162;4.516;2022-07-29T07:49:52;22.70;47.00
72905;DHT22;61048;52.162;4.516;2022-07-29T07:52:20;22.70;46.90
72905;DHT22;61048;52.162;4.516;2022-07-29T07:54:49;22.80;46.90
72905;DHT22;61048;52.162;4.516;2022-07-29T07:57:16;22.80;46.90
72905;DHT22;61048;52.162;4.516;2022-07-29T07:59:43;22.80;46.90
72905;DHT22;61048;52.162;4.516;2022-07-29T08:02:10;22.80;46.80
72905;DHT22;61048;52.162;4.516;2022-07-29T08:04:36;22.80;46.80
72905;DHT22;61048;52.162;4.516;2022-07-29T08:07:06;22.90;46.80
72905;DHT22;61048;52.162;4.516;2022-07-29T08:09:33;22.90;46.80
72905;DHT22;61048;52.162;4.516;2022-07-29T08:12:02;22.90;46.80
72905;DHT22;61048;52.162;4.516;2022-07-29T08:14:31;23.00;46.70
72905;DHT22;61048;52.162;4.516;2022-07-29T08:16:58;23.00;46.80
72905;DHT22;61048;52.162;4.516;2022-07-29T08:19:25;23.00;46.80
72905;DHT22;61048;52.162;4.516;2022-07-29T08:21:52;23.00;46.70
72905;DHT22;61048;52.162;4.516;2022-07-29T08:24:19;23.00;46.70
72905;DHT22;61048;52.162;4.516;2022-07-29T08:27:04;23.00;46.60
72905;DHT22;61048;52.162;4.516;2022-07-29T08:29:31;23.10;46.60
72905;DHT22;61048;52.162;4.516;2022-07-29T08:31:58;23.10;46.60
72905;DHT22;61048;52.162;4.516;2022-07-29T08:34:25;23.10;46.60
72905;DHT22;61048;52.162;4.516;2022-07-29T08:36:52;23.10;46.70
72905;DHT22;61048;52.162;4.516;2022-07-29T08:39:19;23.20;46.60
72905;DHT22;61048;52.162;4.516;2022-07-29T08:41:46;23.20;46.80
72905;DHT22;61048;52.162;4.516;2022-07-29T08:44:15;23.20;46.80
72905;DHT22;61048;52.162;4.516;2022-07-29T08:46:42;23.20;46.90
72905;DHT22;61048;52.162;4.516;2022-07-29T08:49:09;23.30;46.80
72905;DHT22;61048;52.162;4.516;2022-07-29T08:51:39;23.30;46.80
72905;DHT22;61048;52.162;4.516;2022-07-29T08:54:08;23.30;46.70
72905;DHT22;61048;52.162;4.516;2022-07-29T08:56:36;23.40;46.90
72905;DHT22;61048;52.162;4.516;2022-07-29T08:59:04;23.40;47.00
72905;DHT22;61048;52.162;4.516;2022-07-29T09:01:33;23.40;46.90
72905;DHT22;61048;52.162;4.516;2022-07-29T09:04:05;23.40;46.80
72905;DHT22;61048;52.162;4.516;2022-07-29T09:06:37;23.40;46.80
72905;DHT22;61048;52.162;4.516;2022-07-29T09:09:07;23.40;46.70
72905;DHT22;61048;52.162;4.516;2022-07-29T09:11:34;23.40;46.60
72905;DHT22;61048;52.162;4.516;2022-07-29T09:14:03;23.40;46.50
72905;DHT22;61048;52.162;4.516;2022-07-29T09:16:52;23.50;46.60
72905;DHT22;61048;52.162;4.516;2022-07-29T09:19:24;23.50;46.70
72905;DHT22;61048;52.162;4.516;2022-07-29T09:21:52;23.50;46.70
72905;DHT22;61048;52.162;4.516;2022-07-29T09:24:27;23.60;46.60
72905;DHT22;61048;52.162;4.516;2022-07-29T09:26:54;23.60;46.80
72905;DHT22;61048;52.162;4.516;2022-07-29T09:29:23;23.60;46.80
72905;DHT22;61048;52.162;4.516;2022-07-29T09:31:53;23.60;46.70
72905;DHT22;61048;52.162;4.516;2022-07-29T09:34:24;23.60;46.70
72905;DHT22;61048;52.162;4.516;2022-07-29T09:36:52;23.60;46.50
72905;DHT22;61048;52.162;4.516;2022-07-29T09:39:29;23.60;46.50
72905;DHT22;61048;52.162;4.516;2022-07-29T09:41:57;23.60;46.40
72905;DHT22;61048;52.162;4.516;2022-07-29T09:44:25;23.70;46.30
72905;DHT22;61048;52.162;4.516;2022-07-29T09:47:01;23.70;46.30
72905;DHT22;61048;52.162;4.516;2022-07-29T09:49:31;23.70;46.30
72905;DHT22;61048;52.162;4.516;2022-07-29T09:52:04;23.70;46.30
72905;DHT22;61048;52.162;4.516;2022-07-29T09:54:32;23.70;46.30
72905;DHT22;61048;52.162;4.516;2022-07-29T09:57:03;23.80;46.30
72905;DHT22;61048;52.162;4.516;2022-07-29T09:59:30;23.90;46.30
72905;DHT22;61048;52.162;4.516;2022-07-29T10:01:59;23.90;46.30
72905;DHT22;61048;52.162;4.516;2022-07-29T10:04:37;23.90;46.30
72905;DHT22;61048;52.162;4.516;2022-07-29T10:07:05;23.90;46.30
72905;DHT22;61048;52.162;4.516;2022-07-29T10:09:32;23.90;46.30
72905;DHT22;61048;52.162;4.516;2022-07-29T10:12:07;24.00;46.20
72905;DHT22;61048;52.162;4.516;2022-07-29T10:14:37;24.00;46.30
72905;DHT22;61048;52.162;4.516;2022-07-29T10:17:06;24.00;46.30
72905;DHT22;61048;52.162;4.516;2022-07-29T10:19:34;24.00;46.30
72905;DHT22;61048;52.162;4.516;2022-07-29T10:22:03;24.00;46.10
72905;DHT22;61048;52.162;4.516;2022-07-29T10:24:31;24.00;46.10
72905;DHT22;61048;52.162;4.516;2022-07-29T10:26:59;24.00;46.00
72905;DHT22;61048;52.162;4.516;2022-07-29T10:29:27;24.00;45.90
72905;DHT22;61048;52.162;4.516;2022-07-29T10:32:07;24.00;45.90
72905;DHT22;61048;52.162;4.516;2022-07-29T10:34:49;24.10;45.90
72905;DHT22;61048;52.162;4.516;2022-07-29T10:37:22;24.10;45.80
72905;DHT22;61048;52.162;4.516;2022-07-29T10:39:57;24.10;45.70
72905;DHT22;61048;52.162;4.516;2022-07-29T10:42:29;24.10;45.70
72905;DHT22;61048;52.162;4.516;2022-07-29T10:44:56;24.10;45.70
72905;DHT22;61048;52.162;4.516;2022-07-29T10:47:26;24.10;45.80
72905;DHT22;61048;52.162;4.516;2022-07-29T10:49:58;24.20;45.80
72905;DHT22;61048;52.162;4.516;2022-07-29T10:52:31;24.20;45.70
72905;DHT22;61048;52.162;4.516;2022-07-29T10:55:31;24.20;45.70
72905;DHT22;61048;52.162;4.516;2022-07-29T10:58:13;24.30;45.90
72905;DHT22;61048;52.162;4.516;2022-07-29T11:00:40;24.30;46.00
72905;DHT22;61048;52.162;4.516;2022-07-29T11:03:08;24.30;46.00
72905;DHT22;61048;52.162;4.516;2022-07-29T11:05:54;24.30;45.90
72905;DHT22;61048;52.162;4.516;2022-07-29T11:08:22;24.40;46.00
72905;DHT22;61048;52.162;4.516;2022-07-29T11:10:52;24.40;46.00
72905;DHT22;61048;52.162;4.516;2022-07-29T11:13:46;24.40;45.80
72905;DHT22;61048;52.162;4.516;2022-07-29T11:16:16;24.40;45.90
72905;DHT22;61048;52.162;4.516;2022-07-29T11:19:21;24.40;45.80
72905;DHT22;61048;52.162;4.516;2022-07-29T11:21:48;24.40;45.80
72905;DHT22;61048;52.162;4.516;2022-07-29T11:24:20;24.40;45.60
72905;DHT22;61048;52.162;4.516;2022-07-29T11:29:51;24.50;45.10
72905;DHT22;61048;52.162;4.516;2022-07-29T11:32:18;24.50;45.10
72905;DHT22;61048;52.162;4.516;2022-07-29T11:34:48;24.50;45.10
72905;DHT22;61048;52.162;4.516;2022-07-29T11:37:20;24.50;45.20
72905;DHT22;61048;52.162;4.516;2022-07-29T11:40:08;24.50;45.20
72905;DHT22;61048;52.162;4.516;2022-07-29T11:42:46;24.50;45.20
72905;DHT22;61048;52.162;4.516;2022-07-29T11:45:25;24.50;45.30
72905;DHT22;61048;52.162;4.516;2022-07-29T11:47:59;24.50;45.20
72905;DHT22;61048;52.162;4.516;2022-07-29T11:50:35;24.50;45.10
72905;DHT22;61048;52.162;4.516;2022-07-29T11:53:10;24.60;45.10
72905;DHT22;61048;52.162;4.516;2022-07-29T11:55:38;24.60;45.10
72905;DHT22;61048;52.162;4.516;2022-07-29T11:58:08;24.60;45.00
72905;DHT22;61048;52.162;4.516;2022-07-29T12:00:37;24.60;44.90
72905;DHT22;61048;52.162;4.516;2022-07-29T12:03:05;24.60;44.80
72905;DHT22;61048;52.162;4.516;2022-07-29T12:05:36;24.60;44.80
72905;DHT22;61048;52.162;4.516;2022-07-29T12:08:09;24.70;44.70
72905;DHT22;61048;52.162;4.516;2022-07-29T12:10:36;24.70;44.80
72905;DHT22;61048;52.162;4.516;2022-07-29T12:13:04;24.70;44.80
72905;DHT22;61048;52.162;4.516;2022-07-29T12:15:31;24.70;44.80
72905;DHT22;61048;52.162;4.516;2022-07-29T12:17:58;24.70;44.60
72905;DHT22;61048;52.162;4.516;2022-07-29T12:20:26;24.70;44.50
72905;DHT22;61048;52.162;4.516;2022-07-29T12:22:55;24.80;44.20
72905;DHT22;61048;52.162;4.516;2022-07-29T12:25:23;24.80;44.00
72905;DHT22;61048;52.162;4.516;2022-07-29T12:28:01;24.80;43.90
72905;DHT22;61048;52.162;4.516;2022-07-29T12:30:37;24.80;44.00
72905;DHT22;61048;52.162;4.516;2022-07-29T12:33:11;24.80;43.90
72905;DHT22;61048;52.162;4.516;2022-07-29T12:35:39;24.80;44.00
72905;DHT22;61048;52.162;4.516;2022-07-29T12:38:09;24.80;44.00
72905;DHT22;61048;52.162;4.516;2022-07-29T12:40:38;24.80;44.10
72905;DHT22;61048;52.162;4.516;2022-07-29T12:43:09;24.80;44.20
72905;DHT22;61048;52.162;4.516;2022-07-29T12:45:37;24.80;44.20
72905;DHT22;61048;52.162;4.516;2022-07-29T12:48:05;24.80;44.20
72905;DHT22;61048;52.162;4.516;2022-07-29T12:50:34;24.80;44.30
72905;DHT22;61048;52.162;4.516;2022-07-29T12:53:13;24.80;44.30
72905;DHT22;61048;52.162;4.516;2022-07-29T12:55:41;24.80;44.40
72905;DHT22;61048;52.162;4.516;2022-07-29T12:58:09;24.80;44.40
72905;DHT22;61048;52.162;4.516;2022-07-29T13:00:35;24.80;44.50
72905;DHT22;61048;52.162;4.516;2022-07-29T13:03:02;24.80;44.60
72905;DHT22;61048;52.162;4.516;2022-07-29T13:05:40;24.80;44.60
72905;DHT22;61048;52.162;4.516;2022-07-29T13:08:14;24.80;44.60
72905;DHT22;61048;52.162;4.516;2022-07-29T13:10:41;24.80;44.50
72905;DHT22;61048;52.162;4.516;2022-07-29T13:13:09;24.90;44.50
72905;DHT22;61048;52.162;4.516;2022-07-29T13:15:37;24.90;44.50
72905;DHT22;61048;52.162;4.516;2022-07-29T13:18:05;24.90;44.60
72905;DHT22;61048;52.162;4.516;2022-07-29T13:20:33;24.90;44.60
72905;DHT22;61048;52.162;4.516;2022-07-29T13:23:00;24.90;44.60
72905;DHT22;61048;52.162;4.516;2022-07-29T13:25:30;24.90;44.50
72905;DHT22;61048;52.162;4.516;2022-07-29T13:27:59;24.90;44.50
72905;DHT22;61048;52.162;4.516;2022-07-29T13:30:26;24.90;44.60
72905;DHT22;61048;52.162;4.516;2022-07-29T13:32:52;24.90;44.60
72905;DHT22;61048;52.162;4.516;2022-07-29T13:35:20;24.90;44.60
72905;DHT22;61048;52.162;4.516;2022-07-29T13:37:47;25.00;44.60
72905;DHT22;61048;52.162;4.516;2022-07-29T13:40:14;25.00;44.70
72905;DHT22;61048;52.162;4.516;2022-07-29T13:42:42;25.00;44.60
72905;DHT22;61048;52.162;4.516;2022-07-29T13:45:10;25.00;44.60
72905;DHT22;61048;52.162;4.516;2022-07-29T13:47:37;25.00;44.60
72905;DHT22;61048;52.162;4.516;2022-07-29T13:50:06;25.10;44.50
72905;DHT22;61048;52.162;4.516;2022-07-29T13:52:33;25.10;44.50
72905;DHT22;61048;52.162;4.516;2022-07-29T13:55:01;25.10;44.50
72905;DHT22;61048;52.162;4.516;2022-07-29T13:57:29;25.10;44.50
72905;DHT22;61048;52.162;4.516;2022-07-29T13:59:57;25.10;44.50
72905;DHT22;61048;52.162;4.516;2022-07-29T14:02:24;25.00;44.60
72905;DHT22;61048;52.162;4.516;2022-07-29T14:04:51;25.10;44.60
72905;DHT22;61048;52.162;4.516;2022-07-29T14:07:18;25.10;44.50
72905;DHT22;61048;52.162;4.516;2022-07-29T14:09:47;25.10;44.60
72905;DHT22;61048;52.162;4.516;2022-07-29T14:12:14;25.10;44.50
72905;DHT22;61048;52.162;4.516;2022-07-29T14:14:41;25.10;44.50
72905;DHT22;61048;52.162;4.516;2022-07-29T14:17:09;25.10;44.60
72905;DHT22;61048;52.162;4.516;2022-07-29T14:19:36;25.10;44.60
72905;DHT22;61048;52.162;4.516;2022-07-29T14:22:04;25.10;44.50
72905;DHT22;61048;52.162;4.516;2022-07-29T14:24:31;25.10;44.50
72905;DHT22;61048;52.162;4.516;2022-07-29T14:26:59;25.20;44.60
72905;DHT22;61048;52.162;4.516;2022-07-29T14:29:26;25.20;44.50
72905;DHT22;61048;52.162;4.516;2022-07-29T14:31:53;25.20;44.60
72905;DHT22;61048;52.162;4.516;2022-07-29T14:34:21;25.20;44.60
72905;DHT22;61048;52.162;4.516;2022-07-29T14:36:48;25.20;44.70
72905;DHT22;61048;52.162;4.516;2022-07-29T14:39:15;25.20;44.60
72905;DHT22;61048;52.162;4.516;2022-07-29T14:41:42;25.20;44.70
72905;DHT22;61048;52.162;4.516;2022-07-29T14:44:09;25.20;44.50
72905;DHT22;61048;52.162;4.516;2022-07-29T14:46:36;25.20;44.60
72905;DHT22;61048;52.162;4.516;2022-07-29T14:49:03;25.20;44.60
72905;DHT22;61048;52.162;4.516;2022-07-29T14:51:32;25.20;44.60
72905;DHT22;61048;52.162;4.516;2022-07-29T14:53:59;25.20;44.50
72905;DHT22;61048;52.162;4.516;2022-07-29T14:56:26;25.30;44.50
72905;DHT22;61048;52.162;4.516;2022-07-29T14:58:58;25.30;44.60
72905;DHT22;61048;52.162;4.516;2022-07-29T15:01:25;25.30;44.60
72905;DHT22;61048;52.162;4.516;2022-07-29T15:03:51;25.30;44.60
72905;DHT22;61048;52.162;4.516;2022-07-29T15:06:20;25.30;44.60
72905;DHT22;61048;52.162;4.516;2022-07-29T15:08:49;25.30;44.60
72905;DHT22;61048;52.162;4.516;2022-07-29T15:11:16;25.30;44.70
72905;DHT22;61048;52.162;4.516;2022-07-29T15:13:42;25.30;44.60
72905;DHT22;61048;52.162;4.516;2022-07-29T15:16:09;25.30;44.50
72905;DHT22;61048;52.162;4.516;2022-07-29T15:18:36;25.30;44.50
72905;DHT22;61048;52.162;4.516;2022-07-29T15:21:04;25.30;44.50
72905;DHT22;61048;52.162;4.516;2022-07-29T15:23:32;25.40;44.50
72905;DHT22;61048;52.162;4.516;2022-07-29T15:26:02;25.40;44.40
72905;DHT22;61048;52.162;4.516;2022-07-29T15:28:29;25.40;44.50
72905;DHT22;61048;52.162;4.516;2022-07-29T15:30:56;25.40;44.60
72905;DHT22;61048;52.162;4.516;2022-07-29T15:33:22;25.40;44.50
72905;DHT22;61048;52.162;4.516;2022-07-29T15:35:49;25.40;44.60
72905;DHT22;61048;52.162;4.516;2022-07-29T15:38:16;25.50;44.50
72905;DHT22;61048;52.162;4.516;2022-07-29T15:40:45;25.50;44.50
72905;DHT22;61048;52.162;4.516;2022-07-29T15:43:13;25.40;44.50
72905;DHT22;61048;52.162;4.516;2022-07-29T15:45:41;25.50;44.50
72905;DHT22;61048;52.162;4.516;2022-07-29T15:48:29;25.50;44.60
72905;DHT22;61048;52.162;4.516;2022-07-29T15:50:56;25.50;44.60